Time;durP1;ratioP1;P1;durP2;ratioP2;P2;SDS_P1;SDS_P2;PMS_P1;PMS_P2;Temp;Humidity;BMP_temperature;BMP_pressure;BME280_temperature;BME280_humidity;BME280_pressure;Samples;Min_cycle;Max_cycle;Signal;HPM_P1;HPM_P2
2022/09/30 00:00:55;;;;;;;;;;;;;;;7.30;90.72;100809.56;5096394;28;19996;-34
2022/09/30 00:03:20;;;;;;;;;;;;;;;7.29;90.61;100814.13;5096589;28;19963;-34
2022/09/30 00:05:46;;;;;;;;;;;;;;;7.29;90.66;100824.06;5096245;28;19922;-34
2022/09/30 00:08:11;;;;;;;;;;;;;;;7.25;89.69;100820.13;5096078;28;19916;-34
2022/09/30 00:10:36;;;;;;;;;;;;;;;7.19;90.11;100819.13;5095647;28;19920;-35
2022/09/30 00:13:01;;;;;;;;;;;;;;;7.15;90.74;100820.56;5095882;28;20373;-34
2022/09/30 00:15:27;;;;;;;;;;;;;;;7.12;90.89;100818.28;5095302;28;20381;-34
2022/09/30 00:17:52;;;;;;;;;;;;;;;7.11;90.18;100828.22;5095348;28;20007;-34
2022/09/30 00:20:18;;;;;;;;;;;;;;;7.10;90.07;100823.06;5095501;28;19917;-34
2022/09/30 00:22:43;;;;;;;;;;;;;;;7.09;90.23;100826.78;5095494;28;19969;-34
2022/09/30 00:25:09;;;;;;;;;;;;;;;7.06;90.47;100824.50;5095284;28;19916;-35
2022/09/30 00:27:34;;;;;;;;;;;;;;;7.04;90.40;100822.03;5095618;28;20383;-35
2022/09/30 00:29:59;;;;;;;;;;;;;;;7.02;90.26;100818.69;5095478;28;19922;-34
2022/09/30 00:32:24;;;;;;;;;;;;;;;6.97;90.74;100819.31;5095309;28;19924;-35
2022/09/30 00:34:49;;;;;;;;;;;;;;;6.95;91.13;100824.09;5095192;28;19952;-34
2022/09/30 00:37:15;;;;;;;;;;;;;;;6.92;90.43;100819.13;5095279;28;20007;-35
2022/09/30 00:39:41;;;;;;;;;;;;;;;6.90;90.79;100821.19;5095335;28;19919;-34
2022/09/30 00:42:10;;;;;;;;;;;;;;;6.90;91.17;100818.50;5095608;28;19920;-35
2022/09/30 00:44:38;;;;;;;;;;;;;;;6.88;91.09;100815.22;5094958;28;19916;-34
2022/09/30 00:47:04;;;;;;;;;;;;;;;6.85;90.96;100815.63;5094984;28;19923;-34
2022/09/30 00:49:30;;;;;;;;;;;;;;;6.85;91.08;100814.78;5094871;28;20398;-35
2022/09/30 00:51:56;;;;;;;;;;;;;;;6.87;90.98;100813.53;5094842;28;19916;-35
2022/09/30 00:54:27;;;;;;;;;;;;;;;6.85;91.26;100815.63;5094999;28;20312;-34
2022/09/30 00:56:54;;;;;;;;;;;;;;;6.87;90.44;100824.28;5095303;28;19957;-34
2022/09/30 00:59:24;;;;;;;;;;;;;;;6.85;90.55;100825.56;5094749;28;19916;-34
2022/09/30 01:01:50;;;;;;;;;;;;;;;6.82;91.26;100828.63;5094458;28;20015;-34
2022/09/30 01:04:21;;;;;;;;;;;;;;;6.78;90.80;100828.22;5094489;28;19916;-34
2022/09/30 01:06:46;;;;;;;;;;;;;;;6.77;91.18;100821.19;5095025;28;19959;-34
2022/09/30 01:09:12;;;;;;;;;;;;;;;6.74;90.97;100824.31;5094881;28;20371;-34
2022/09/30 01:11:37;;;;;;;;;;;;;;;6.72;91.14;100827.19;5094670;28;19936;-34
2022/09/30 01:14:12;;;;;;;;;;;;;;;6.72;90.57;100831.75;5094485;28;19923;-34
2022/09/30 01:16:56;;;;;;;;;;;;;;;6.70;91.47;100829.25;5095002;28;19927;-33
2022/09/30 01:19:39;;;;;;;;;;;;;;;6.67;91.36;100831.53;5094319;28;19958;-34
2022/09/30 01:22:15;;;;;;;;;;;;;;;6.65;90.59;100820.16;5094269;28;20002;-34
2022/09/30 01:24:47;;;;;;;;;;;;;;;6.56;91.14;100826.78;5076733;28;19916;-33
2022/09/30 01:27:15;;;;;;;;;;;;;;;6.52;90.74;100822.84;5093664;28;19962;-34
2022/09/30 01:29:48;;;;;;;;;;;;;;;6.50;90.92;100823.06;5094298;28;19916;-34
2022/09/30 01:32:37;;;;;;;;;;;;;;;6.50;90.78;100828.44;5076720;28;20314;-34
2022/09/30 01:35:03;;;;;;;;;;;;;;;6.51;91.86;100830.06;4992876;28;19972;-34
2022/09/30 01:37:51;;;;;;;;;;;;;;;6.51;90.96;100826.56;4992436;28;19924;-34
2022/09/30 01:40:21;;;;;;;;;;;;;;;6.49;91.13;100828.59;4992423;28;19960;-34
2022/09/30 01:43:02;;;;;;;;;;;;;;;6.47;91.50;100834.19;4992214;28;19965;-34
2022/09/30 01:45:43;;;;;;;;;;;;;;;6.44;91.42;100827.38;4992177;28;20320;-34
2022/09/30 01:48:14;;;;;;;;;;;;;;;6.43;91.21;100833.75;4992745;28;20036;-34
2022/09/30 01:50:40;;;;;;;;;;;;;;;6.44;91.01;100831.91;4991916;28;19918;-34
2022/09/30 01:53:11;;;;;;;;;;;;;;;6.40;91.18;100830.69;4992357;28;19928;-34
2022/09/30 01:55:45;;;;;;;;;;;;;;;6.38;90.91;100828.19;4992188;28;20020;-34
2022/09/30 01:58:15;;;;;;;;;;;;;;;6.37;90.67;100831.91;4991993;28;19972;-34
2022/09/30 02:00:42;;;;;;;;;;;;;;;6.35;90.95;100828.59;4991733;28;19918;-34
2022/09/30 02:03:11;;;;;;;;;;;;;;;6.32;91.16;100836.22;4992070;28;19922;-34
2022/09/30 02:05:40;;;;;;;;;;;;;;;6.30;91.40;100841.81;4991680;28;19917;-34
2022/09/30 02:08:15;;;;;;;;;;;;;;;6.29;91.24;100840.13;4991958;28;20374;-34
2022/09/30 02:10:46;;;;;;;;;;;;;;;6.29;91.51;100833.94;4991852;28;19918;-34
2022/09/30 02:13:34;;;;;;;;;;;;;;;6.28;91.67;100837.66;5092552;28;20346;-34
2022/09/30 02:16:11;;;;;;;;;;;;;;;6.26;90.98;100835.19;5093991;28;19956;-34
2022/09/30 02:18:56;;;;;;;;;;;;;;;6.24;91.30;100839.91;5093484;28;20365;-34
2022/09/30 02:21:24;;;;;;;;;;;;;;;6.22;91.06;100836.63;5093124;28;19916;-34
2022/09/30 02:23:52;;;;;;;;;;;;;;;6.19;91.55;100834.34;5094095;28;19920;-34
2022/09/30 02:26:20;;;;;;;;;;;;;;;6.17;91.06;100833.72;5093040;28;19942;-34
2022/09/30 02:28:52;;;;;;;;;;;;;;;6.14;91.97;100834.09;5094175;28;20248;-34
2022/09/30 02:31:18;;;;;;;;;;;;;;;6.12;91.14;100834.31;5093559;28;19924;-34
2022/09/30 02:33:47;;;;;;;;;;;;;;;6.08;91.31;100843.81;5093512;28;20364;-34
2022/09/30 02:36:15;;;;;;;;;;;;;;;6.05;91.22;100828.13;5092979;28;20380;-34
2022/09/30 02:38:43;;;;;;;;;;;;;;;6.05;91.52;100827.25;5093274;28;19923;-34
2022/09/30 02:41:14;;;;;;;;;;;;;;;6.03;91.11;100834.69;5097288;28;19916;-34
2022/09/30 02:43:40;;;;;;;;;;;;;;;6.01;91.07;100823.34;5097014;28;19938;-34
2022/09/30 02:46:24;;;;;;;;;;;;;;;6.00;91.64;100832.41;5097115;28;19958;-34
2022/09/30 02:49:01;;;;;;;;;;;;;;;5.99;91.76;100834.25;5097998;28;19916;-34
2022/09/30 02:51:49;;;;;;;;;;;;;;;5.99;91.87;100834.25;5097738;28;20279;-34
2022/09/30 02:54:32;;;;;;;;;;;;;;;5.99;92.08;100833.44;5095397;28;20283;-34
2022/09/30 02:56:57;;;;;;;;;;;;;;;6.00;91.43;100840.47;5097662;28;19932;-34
2022/09/30 02:59:24;;;;;;;;;;;;;;;5.97;91.68;100830.16;5097083;28;20269;-34
2022/09/30 03:01:49;;;;;;;;;;;;;;;5.94;91.90;100834.88;5096554;28;19920;-34
2022/09/30 03:04:18;;;;;;;;;;;;;;;5.94;91.76;100836.72;5096881;28;19958;-34
2022/09/30 03:06:43;;;;;;;;;;;;;;;5.93;91.94;100835.91;5097011;28;19916;-34
2022/09/30 03:09:09;;;;;;;;;;;;;;;5.94;91.95;100837.56;5096820;28;19923;-34
2022/09/30 03:11:36;;;;;;;;;;;;;;;5.92;91.95;100838.78;5078673;28;19923;-34
2022/09/30 03:14:01;;;;;;;;;;;;;;;5.87;91.98;100838.53;5097456;28;19923;-34
2022/09/30 03:16:45;;;;;;;;;;;;;;;5.84;92.00;100839.75;5096397;28;19920;-34
2022/09/30 03:19:28;;;;;;;;;;;;;;;5.82;92.30;100833.78;5096675;28;19920;-34
2022/09/30 03:22:10;;;;;;;;;;;;;;;5.78;91.87;100834.38;5097444;28;20280;-34
2022/09/30 03:24:59;;;;;;;;;;;;;;;5.78;91.81;100843.25;5096512;28;20053;-34
2022/09/30 03:27:33;;;;;;;;;;;;;;;5.81;92.44;100852.75;5096240;28;19939;-34
2022/09/30 03:30:10;;;;;;;;;;;;;;;5.84;92.42;100846.97;5097268;28;20268;-34
2022/09/30 03:32:44;;;;;;;;;;;;;;;5.84;92.27;100846.97;5096537;28;19942;-34
2022/09/30 03:35:30;;;;;;;;;;;;;;;5.80;92.64;100851.91;5096397;28;19916;-34
2022/09/30 03:37:55;;;;;;;;;;;;;;;5.76;92.61;100844.44;5096732;28;19955;-34
2022/09/30 03:40:26;;;;;;;;;;;;;;;5.74;92.69;100841.97;5096280;28;19919;-34
2022/09/30 03:42:54;;;;;;;;;;;;;;;5.72;92.02;100844.03;5096720;28;19920;-34
2022/09/30 03:45:28;;;;;;;;;;;;;;;5.68;91.63;100846.28;5096044;28;19916;-34
2022/09/30 03:47:57;;;;;;;;;;;;;;;5.68;92.37;100858.88;5096604;28;19923;-34
2022/09/30 03:50:23;;;;;;;;;;;;;;;5.70;92.23;100854.13;5095838;28;20376;-34
2022/09/30 03:52:49;;;;;;;;;;;;;;;5.73;92.87;100860.97;5095416;28;19923;-34
2022/09/30 03:55:15;;;;;;;;;;;;;;;5.72;92.73;100857.47;5095614;28;19916;-34
2022/09/30 03:57:43;;;;;;;;;;;;;;;5.68;92.20;100862.38;5095816;28;19916;-34
2022/09/30 04:00:10;;;;;;;;;;;;;;;5.67;92.57;100867.97;5095746;28;19959;-34
2022/09/30 04:02:36;;;;;;;;;;;;;;;5.65;92.58;100870.81;5095857;28;19920;-34
2022/09/30 04:05:02;;;;;;;;;;;;;;;5.65;92.51;100878.03;5095834;28;19916;-34
2022/09/30 04:07:27;;;;;;;;;;;;;;;5.64;92.26;100879.09;5095826;28;20027;-34
2022/09/30 04:09:52;;;;;;;;;;;;;;;5.63;92.34;100891.66;5095334;28;19916;-34
2022/09/30 04:12:17;;;;;;;;;;;;;;;5.51;92.45;100892.41;5095943;28;19916;-34
2022/09/30 04:14:43;;;;;;;;;;;;;;;5.48;92.35;100896.31;5095520;28;20311;-34
2022/09/30 04:17:08;;;;;;;;;;;;;;;5.49;92.60;100902.50;5095248;28;19920;-34
2022/09/30 04:19:38;;;;;;;;;;;;;;;5.49;92.27;100913.25;5095615;28;19916;-34
2022/09/30 04:22:03;;;;;;;;;;;;;;;5.50;93.19;100914.91;5095409;28;19923;-34
2022/09/30 04:24:29;;;;;;;;;;;;;;;5.49;92.88;100924.78;5095167;28;19917;-34
2022/09/30 04:26:54;;;;;;;;;;;;;;;5.50;92.81;100925.63;5096022;28;19968;-33
2022/09/30 04:29:19;;;;;;;;;;;;;;;5.46;92.99;100922.50;5094932;28;19917;-33
2022/09/30 04:31:44;;;;;;;;;;;;;;;5.45;92.31;100925.38;5095453;28;19916;-33
2022/09/30 04:34:10;;;;;;;;;;;;;;;5.43;93.10;100921.03;5095494;28;20410;-34
2022/09/30 04:36:35;;;;;;;;;;;;;;;5.41;92.77;100916.88;5095700;28;19969;-34
2022/09/30 04:39:00;;;;;;;;;;;;;;;5.42;92.68;100916.72;5095061;28;19924;-34
2022/09/30 04:41:25;;;;;;;;;;;;;;;5.40;93.18;100918.75;5094753;28;20083;-33
2022/09/30 04:43:51;;;;;;;;;;;;;;;5.40;92.75;100921.41;5095781;28;19916;-34
2022/09/30 04:46:17;;;;;;;;;;;;;;;5.40;93.00;100924.09;5094813;28;19991;-34
2022/09/30 04:48:44;;;;;;;;;;;;;;;5.39;93.28;100925.13;5094858;28;19922;-34
2022/09/30 04:51:10;;;;;;;;;;;;;;;5.41;92.71;100930.28;5094763;28;20333;-34
2022/09/30 04:53:35;;;;;;;;;;;;;;;5.42;92.70;100934.66;5094594;28;19962;-33
2022/09/30 04:56:01;;;;;;;;;;;;;;;5.40;92.73;100936.69;5077213;28;20375;-34
2022/09/30 04:58:27;;;;;;;;;;;;;;;5.39;92.88;100935.03;5095309;28;20014;-34
2022/09/30 05:00:59;;;;;;;;;;;;;;;5.35;92.52;100945.31;5094715;28;19943;-34
2022/09/30 05:03:24;;;;;;;;;;;;;;;5.31;92.59;100945.91;5095227;28;19920;-34
2022/09/30 05:05:50;;;;;;;;;;;;;;;5.24;92.61;100948.53;5095146;28;20015;-33
2022/09/30 05:08:17;;;;;;;;;;;;;;;5.22;93.26;100945.22;5094039;28;20208;-33
2022/09/30 05:10:42;;;;;;;;;;;;;;;5.22;93.41;100950.59;5094424;28;19916;-33
2022/09/30 05:13:08;;;;;;;;;;;;;;;5.20;92.94;100952.63;5094533;28;20275;-34
2022/09/30 05:15:33;;;;;;;;;;;;;;;5.17;92.71;100953.00;5075993;28;19970;-34
2022/09/30 05:17:58;;;;;;;;;;;;;;;5.13;92.86;100954.44;5095020;28;19923;-34
2022/09/30 05:20:24;;;;;;;;;;;;;;;5.12;93.08;100948.25;5094171;28;19916;-33
2022/09/30 05:22:53;;;;;;;;;;;;;;;5.13;92.95;100949.06;5093986;28;19956;-34
2022/09/30 05:25:18;;;;;;;;;;;;;;;5.12;93.38;100942.88;5093978;28;20057;-34
2022/09/30 05:27:47;;;;;;;;;;;;;;;5.11;92.85;100943.88;5094167;28;20019;-34
2022/09/30 05:30:12;;;;;;;;;;;;;;;5.10;93.50;100944.06;5094051;28;20330;-34
2022/09/30 05:32:38;;;;;;;;;;;;;;;5.09;92.98;100955.81;5094266;28;19932;-34
2022/09/30 05:35:04;;;;;;;;;;;;;;;5.07;93.70;100957.84;5093905;28;19923;-34
2022/09/30 05:37:29;;;;;;;;;;;;;;;5.08;93.21;100960.34;5094345;28;19920;-34
2022/09/30 05:39:54;;;;;;;;;;;;;;;5.10;93.03;100960.16;5094228;28;19962;-34
2022/09/30 05:42:19;;;;;;;;;;;;;;;5.09;93.14;100967.38;5094424;28;20267;-34
2022/09/30 05:44:45;;;;;;;;;;;;;;;5.09;93.71;100971.91;5093421;28;19969;-34
2022/09/30 05:47:10;;;;;;;;;;;;;;;5.10;93.73;100984.28;5093956;28;19953;-34
2022/09/30 05:49:36;;;;;;;;;;;;;;;5.11;93.52;100993.97;5093314;28;19923;-34
2022/09/30 05:52:01;;;;;;;;;;;;;;;5.08;93.41;100995.22;5093355;28;19916;-34
2022/09/30 05:54:26;;;;;;;;;;;;;;;5.07;93.22;100995.38;5075338;28;20110;-34
2022/09/30 05:56:51;;;;;;;;;;;;;;;5.08;93.19;100997.88;5093339;28;20376;-34
2022/09/30 05:59:17;;;;;;;;;;;;;;;5.09;93.77;101004.91;5093245;28;19970;-34
2022/09/30 06:01:42;;;;;;;;;;;;;;;5.06;93.26;100999.91;5093899;28;19955;-35
2022/09/30 06:04:08;;;;;;;;;;;;;;;5.00;93.46;100991.81;5094105;28;20355;-34
2022/09/30 06:06:33;;;;;;;;;;;;;;;5.09;93.89;101002.22;5093824;28;19971;-34
2022/09/30 06:08:59;;;;;;;;;;;;;;;5.14;94.02;101009.69;5093542;28;20366;-35
2022/09/30 06:11:24;;;;;;;;;;;;;;;5.15;93.98;101004.13;5093446;28;20022;-35
2022/09/30 06:13:49;;;;;;;;;;;;;;;5.15;93.34;101009.50;5092512;28;19946;-35
2022/09/30 06:16:15;;;;;;;;;;;;;;;5.20;93.89;101011.59;5093292;28;19917;-35
2022/09/30 06:18:41;;;;;;;;;;;;;;;5.23;93.51;101008.56;5093016;28;19923;-34
2022/09/30 06:21:07;;;;;;;;;;;;;;;5.27;93.69;101012.50;5093380;28;19920;-35
2022/09/30 06:23:33;;;;;;;;;;;;;;;5.31;94.11;101019.13;5093356;28;20356;-35
2022/09/30 06:25:59;;;;;;;;;;;;;;;5.36;93.28;101018.53;5093062;28;19916;-35
2022/09/30 06:28:26;;;;;;;;;;;;;;;5.37;93.93;101023.75;5093085;28;19926;-34
2022/09/30 06:30:51;;;;;;;;;;;;;;;5.38;93.66;101025.41;5093107;28;19923;-35
2022/09/30 06:33:16;;;;;;;;;;;;;;;5.40;94.26;101028.69;5093763;28;20427;-35
2022/09/30 06:35:42;;;;;;;;;;;;;;;5.41;94.35;101035.72;5093198;28;20014;-35
2022/09/30 06:38:08;;;;;;;;;;;;;;;5.46;94.48;101023.59;5092886;28;19920;-35
2022/09/30 06:40:33;;;;;;;;;;;;;;;5.48;95.24;101019.69;5093070;28;19959;-35
2022/09/30 06:42:58;;;;;;;;;;;;;;;5.53;95.50;101016.44;5093213;28;20348;-35
2022/09/30 06:45:24;;;;;;;;;;;;;;;5.57;95.18;101013.19;5093242;28;19916;-35
2022/09/30 06:47:50;;;;;;;;;;;;;;;5.65;94.91;101013.03;5093157;28;20015;-35
2022/09/30 06:50:16;;;;;;;;;;;;;;;5.68;95.64;101017.19;5093052;28;20276;-34
2022/09/30 06:52:41;;;;;;;;;;;;;;;5.74;95.75;101019.06;5093146;28;19916;-35
2022/09/30 06:55:07;;;;;;;;;;;;;;;5.80;95.55;101022.81;5093475;28;19916;-35
2022/09/30 06:57:33;;;;;;;;;;;;;;;5.86;96.82;101016.69;5093336;28;19916;-35
2022/09/30 06:59:58;;;;;;;;;;;;;;;5.92;96.58;101016.78;5092984;28;19916;-34
2022/09/30 07:02:23;;;;;;;;;;;;;;;6.01;97.42;101013.94;5093102;28;19963;-35
2022/09/30 07:04:49;;;;;;;;;;;;;;;6.07;96.89;101018.53;5092871;28;20390;-35
2022/09/30 07:07:14;;;;;;;;;;;;;;;6.12;96.86;101026.81;5093752;28;19917;-35
2022/09/30 07:09:39;;;;;;;;;;;;;;;6.17;97.39;101032.41;5092934;28;19917;-35
2022/09/30 07:12:07;;;;;;;;;;;;;;;6.23;96.93;101030.78;5093727;28;19931;-34
2022/09/30 07:14:34;;;;;;;;;;;;;;;6.30;97.20;101021.75;5092888;28;20410;-35
2022/09/30 07:17:02;;;;;;;;;;;;;;;6.33;97.87;101012.47;5093155;28;20422;-35
2022/09/30 07:19:28;;;;;;;;;;;;;;;6.47;98.02;101024.09;5092918;28;20007;-35
2022/09/30 07:21:53;;;;;;;;;;;;;;;6.53;98.40;101020.59;5093405;28;19959;-35
2022/09/30 07:24:18;;;;;;;;;;;;;;;6.62;98.48;101022.09;5092518;28;19939;-34
2022/09/30 07:26:44;;;;;;;;;;;;;;;6.70;98.35;101025.44;5096132;28;19923;-35
2022/09/30 07:29:10;;;;;;;;;;;;;;;6.79;98.88;101022.59;5096479;28;19916;-35
2022/09/30 07:31:35;;;;;;;;;;;;;;;6.88;100.00;101032.97;5096687;28;19916;-35
2022/09/30 07:34:01;;;;;;;;;;;;;;;6.97;98.59;101029.03;5096372;28;20320;-35
2022/09/30 07:36:28;;;;;;;;;;;;;;;7.07;99.06;101027.81;5096925;28;19920;-35
2022/09/30 07:38:54;;;;;;;;;;;;;;;7.15;99.39;101023.09;5096599;28;19974;-35
2022/09/30 07:41:23;;;;;;;;;;;;;;;7.25;99.85;101028.06;5096469;28;19985;-35
2022/09/30 07:43:49;;;;;;;;;;;;;;;7.35;99.71;101036.56;5095903;28;19927;-35
2022/09/30 07:46:15;;;;;;;;;;;;;;;7.44;100.00;101034.50;5095754;28;19916;-35
2022/09/30 07:48:49;;;;;;;;;;;;;;;7.54;100.00;101031.41;5096366;28;19973;-35
2022/09/30 07:51:14;;;;;;;;;;;;;;;7.63;100.00;101028.31;5096315;28;19916;-35
2022/09/30 07:53:41;;;;;;;;;;;;;;;7.73;100.00;101020.66;5096775;28;19969;-35
2022/09/30 07:56:06;;;;;;;;;;;;;;;7.83;100.00;101028.31;5096270;28;19970;-35
2022/09/30 07:58:32;;;;;;;;;;;;;;;7.93;100.00;101015.25;5095512;28;19967;-35
2022/09/30 08:00:57;;;;;;;;;;;;;;;8.03;100.00;101020.19;5095533;28;19920;-35
2022/09/30 08:03:23;;;;;;;;;;;;;;;8.13;100.00;101019.78;5095845;28;19965;-35
2022/09/30 08:05:48;;;;;;;;;;;;;;;8.24;100.00;101019.13;5095656;28;19922;-35
2022/09/30 08:08:14;;;;;;;;;;;;;;;8.36;100.00;101019.31;5096250;28;20387;-35
2022/09/30 08:10:40;;;;;;;;;;;;;;;8.45;100.00;101020.75;5095923;28;20015;-35
2022/09/30 08:13:05;;;;;;;;;;;;;;;8.55;100.00;101013.03;5095941;28;20415;-35
2022/09/30 08:15:30;;;;;;;;;;;;;;;8.64;100.00;101016.34;5095558;28;19920;-35
2022/09/30 08:17:55;;;;;;;;;;;;;;;8.76;100.00;101015.44;5095963;28;20049;-35
2022/09/30 08:20:20;;;;;;;;;;;;;;;8.89;100.00;101017.25;5095947;28;19955;-35
2022/09/30 08:22:46;;;;;;;;;;;;;;;8.99;100.00;101023.00;5095503;28;20019;-35
2022/09/30 08:25:11;;;;;;;;;;;;;;;9.11;100.00;101016.91;5095374;28;20275;-35
2022/09/30 08:27:37;;;;;;;;;;;;;;;9.21;100.00;101012.69;5095387;28;19927;-35
2022/09/30 08:30:02;;;;;;;;;;;;;;;9.31;100.00;101009.50;5095461;28;19916;-35
2022/09/30 08:32:30;;;;;;;;;;;;;;;9.43;100.00;101017.75;5096184;28;19984;-35
2022/09/30 08:34:55;;;;;;;;;;;;;;;9.54;100.00;101017.84;5095231;28;20350;-35
2022/09/30 08:37:21;;;;;;;;;;;;;;;9.67;100.00;101018.78;5095446;28;19966;-35
2022/09/30 08:39:47;;;;;;;;;;;;;;;9.79;100.00;101014.31;5095121;28;19972;-35
2022/09/30 08:42:28;;;;;;;;;;;;;;;9.91;100.00;101017.97;5095369;28;19916;-35
2022/09/30 08:44:59;;;;;;;;;;;;;;;10.03;100.00;101021.56;5095135;28;19923;-35
2022/09/30 08:47:43;;;;;;;;;;;;;;;10.15;100.00;101008.16;5095137;28;19920;-35
2022/09/30 08:50:20;;;;;;;;;;;;;;;10.29;99.82;101019.66;5095029;28;20051;-35
2022/09/30 08:52:51;;;;;;;;;;;;;;;10.39;99.53;101038.88;5095721;28;20342;-35
2022/09/30 08:55:23;;;;;;;;;;;;;;;10.52;99.59;101035.22;5095046;28;19938;-35
2022/09/30 08:57:49;;;;;;;;;;;;;;;10.65;99.34;101031.53;5094956;28;20330;-35
2022/09/30 09:00:16;;;;;;;;;;;;;;;10.76;98.84;101033.47;5094934;28;19920;-35
2022/09/30 09:02:49;;;;;;;;;;;;;;;10.87;98.19;101029.16;5095009;28;19920;-35
2022/09/30 09:05:34;;;;;;;;;;;;;;;10.96;97.72;101031.31;5095341;28;20260;-35
2022/09/30 09:08:02;;;;;;;;;;;;;;;11.07;96.92;101017.00;4992942;28;19973;-35
2022/09/30 09:10:42;;;;;;;;;;;;;;;11.16;96.15;101014.81;4992874;28;19949;-35
2022/09/30 09:13:27;;;;;;;;;;;;;;;11.27;96.54;101026.72;4992797;28;19922;-35
2022/09/30 09:16:13;;;;;;;;;;;;;;;11.37;96.11;101024.31;4992529;28;20026;-35
2022/09/30 09:18:44;;;;;;;;;;;;;;;11.49;95.86;101025.13;4993044;28;19940;-35
2022/09/30 09:21:20;;;;;;;;;;;;;;;11.59;94.22;101025.38;4992558;28;19953;-35
2022/09/30 09:23:47;;;;;;;;;;;;;;;11.66;94.33;101021.75;4992758;28;19975;-35
2022/09/30 09:26:14;;;;;;;;;;;;;;;11.77;94.24;101023.66;4992405;28;19918;-35
2022/09/30 09:28:44;;;;;;;;;;;;;;;11.89;93.99;101038.06;4993129;28;20367;-35
2022/09/30 09:31:15;;;;;;;;;;;;;;;12.00;93.67;101037.22;4992330;28;19925;-35
2022/09/30 09:33:42;;;;;;;;;;;;;;;12.13;94.09;101038.06;4992526;28;19918;-35
2022/09/30 09:36:13;;;;;;;;;;;;;;;12.27;93.92;101044.91;4992240;28;19972;-35
2022/09/30 09:38:47;;;;;;;;;;;;;;;12.35;93.25;101039.13;4992741;28;19918;-35
2022/09/30 09:41:28;;;;;;;;;;;;;;;12.44;92.92;101028.69;4992550;28;20405;-35
2022/09/30 09:44:00;;;;;;;;;;;;;;;12.57;92.30;101029.25;4992810;28;19918;-35
2022/09/30 09:46:25;;;;;;;;;;;;;;;12.69;92.44;101031.13;5094301;28;19916;-35
2022/09/30 09:49:09;;;;;;;;;;;;;;;12.77;90.48;101041.59;5093014;28;19977;-35
2022/09/30 09:51:38;;;;;;;;;;;;;;;12.85;91.40;101022.22;5094734;28;19916;-35
2022/09/30 09:54:04;;;;;;;;;;;;;;;12.94;91.23;101015.34;5094075;28;19916;-35
2022/09/30 09:56:32;;;;;;;;;;;;;;;13.01;90.52;101010.59;5093939;28;19923;-35
2022/09/30 09:59:04;;;;;;;;;;;;;;;13.12;90.23;101022.47;5093974;28;20364;-35
2022/09/30 10:01:32;;;;;;;;;;;;;;;13.19;89.57;101011.47;5093603;28;20007;-35
2022/09/30 10:04:17;;;;;;;;;;;;;;;13.28;90.74;101012.75;5093822;28;19920;-35
2022/09/30 10:06:45;;;;;;;;;;;;;;;13.38;89.54;100999.34;5093869;28;19920;-35
2022/09/30 10:09:29;;;;;;;;;;;;;;;13.51;89.01;101006.34;5094535;28;19959;-35
2022/09/30 10:12:06;;;;;;;;;;;;;;;13.63;88.31;101009.81;5093804;28;20401;-35
2022/09/30 10:14:34;;;;;;;;;;;;;;;13.72;86.60;101016.47;5094276;28;20367;-35
2022/09/30 10:17:00;;;;;;;;;;;;;;;13.80;88.18;101020.66;5093964;28;19935;-35
2022/09/30 10:19:27;;;;;;;;;;;;;;;13.88;86.98;101021.06;5093671;28;19917;-35
2022/09/30 10:22:13;;;;;;;;;;;;;;;14.00;88.01;101020.97;5093378;28;19951;-35
2022/09/30 10:24:39;;;;;;;;;;;;;;;14.10;86.03;101028.44;5093538;28;20375;-35
2022/09/30 10:27:24;;;;;;;;;;;;;;;14.20;86.86;101016.91;5093821;28;19916;-35
2022/09/30 10:29:49;;;;;;;;;;;;;;;14.29;87.21;101016.22;5093117;28;19923;-35
2022/09/30 10:32:15;;;;;;;;;;;;;;;14.41;86.91;101013.41;5094182;28;19916;-35
2022/09/30 10:34:42;;;;;;;;;;;;;;;14.52;85.11;101015.19;5093220;28;19923;-35
2022/09/30 10:37:10;;;;;;;;;;;;;;;14.57;82.49;101017.97;5093514;28;20375;-35
2022/09/30 10:39:37;;;;;;;;;;;;;;;14.68;84.35;101014.28;5093492;28;20280;-36
2022/09/30 10:42:11;;;;;;;;;;;;;;;14.79;81.66;101014.44;5093504;28;19930;-35
2022/09/30 10:44:48;;;;;;;;;;;;;;;14.76;82.21;101015.75;5093106;28;19920;-35
2022/09/30 10:47:15;;;;;;;;;;;;;;;14.63;81.71;101022.41;5093845;28;19955;-35
2022/09/30 10:49:44;;;;;;;;;;;;;;;14.66;81.63;101021.09;5093177;28;19916;-35
2022/09/30 10:52:17;;;;;;;;;;;;;;;14.79;81.65;101015.25;5093349;28;19932;-35
2022/09/30 10:54:53;;;;;;;;;;;;;;;14.94;81.40;101023.59;5093375;28;19942;-35
2022/09/30 10:57:27;;;;;;;;;;;;;;;14.98;80.14;101023.88;5093070;28;19916;-35
2022/09/30 10:59:57;;;;;;;;;;;;;;;14.98;79.09;101029.31;5093474;28;19924;-35
2022/09/30 11:02:31;;;;;;;;;;;;;;;15.05;79.54;101021.78;5096765;28;20433;-35
2022/09/30 11:05:04;;;;;;;;;;;;;;;15.17;77.69;101017.00;5096870;28;20011;-35
2022/09/30 11:07:32;;;;;;;;;;;;;;;15.34;78.48;101016.09;5097721;28;20318;-35
2022/09/30 11:10:20;;;;;;;;;;;;;;;15.52;78.02;101013.00;5098112;28;19922;-35
2022/09/30 11:13:09;;;;;;;;;;;;;;;15.64;75.32;101010.94;5083707;28;19916;-35
2022/09/30 11:15:57;;;;;;;;;;;;;;;15.60;76.34;101007.03;5083312;28;19924;-35
2022/09/30 11:18:29;;;;;;;;;;;;;;;15.58;74.86;101006.50;5095945;28;20400;-35
2022/09/30 11:20:59;;;;;;;;;;;;;;;15.58;74.52;101009.22;5096447;28;19916;-35
2022/09/30 11:23:31;;;;;;;;;;;;;;;15.47;75.22;101004.78;5096524;28;19916;-35
2022/09/30 11:25:59;;;;;;;;;;;;;;;15.54;75.64;101015.44;5097265;28;19924;-35
2022/09/30 11:28:27;;;;;;;;;;;;;;;15.44;71.88;101008.81;5097010;28;20372;-35
2022/09/30 11:30:52;;;;;;;;;;;;;;;15.35;72.80;101007.66;5096999;28;19922;-35
2022/09/30 11:33:17;;;;;;;;;;;;;;;15.29;75.32;101002.41;5097092;28;19916;-36
2022/09/30 11:35:43;;;;;;;;;;;;;;;15.25;75.48;101001.28;5096812;28;20264;-35
2022/09/30 11:38:08;;;;;;;;;;;;;;;15.32;72.97;100999.16;5096582;28;20381;-35
2022/09/30 11:40:37;;;;;;;;;;;;;;;15.45;73.74;100990.56;5097014;28;19916;-35
2022/09/30 11:43:20;;;;;;;;;;;;;;;15.49;73.58;100991.69;5097413;28;19923;-35
2022/09/30 11:45:46;;;;;;;;;;;;;;;15.61;72.90;100984.16;5096489;28;20500;-35
2022/09/30 11:48:17;;;;;;;;;;;;;;;15.68;72.74;100976.63;5096983;28;20002;-35
2022/09/30 11:50:49;;;;;;;;;;;;;;;15.85;71.28;100979.16;5096275;28;19916;-35
2022/09/30 11:53:28;;;;;;;;;;;;;;;16.03;71.23;100979.84;5096770;28;19961;-35
2022/09/30 11:56:01;;;;;;;;;;;;;;;16.19;69.97;100974.19;5096486;28;19932;-36
2022/09/30 11:58:33;;;;;;;;;;;;;;;16.26;69.83;100976.69;5096413;28;19942;-35
2022/09/30 12:01:11;;;;;;;;;;;;;;;16.36;68.83;100973.19;5095822;28;19924;-36
2022/09/30 12:03:39;;;;;;;;;;;;;;;16.43;69.63;100971.03;5096602;28;19924;-35
2022/09/30 12:06:09;;;;;;;;;;;;;;;16.53;70.82;100962.88;5096227;28;20315;-35
2022/09/30 12:08:47;;;;;;;;;;;;;;;16.41;66.70;100965.03;5096012;28;19939;-36
2022/09/30 12:11:17;;;;;;;;;;;;;;;16.16;69.42;100973.91;5095923;28;19973;-35
2022/09/30 12:13:46;;;;;;;;;;;;;;;15.97;70.71;100970.81;5095497;28;20309;-35
2022/09/30 12:16:15;;;;;;;;;;;;;;;15.83;70.55;100975.06;5095454;28;19916;-35
2022/09/30 12:18:43;;;;;;;;;;;;;;;15.82;71.41;100968.00;5095819;28;19916;-35
2022/09/30 12:21:17;;;;;;;;;;;;;;;16.08;71.97;100961.59;5095469;28;19970;-35
2022/09/30 12:23:47;;;;;;;;;;;;;;;16.27;71.01;100958.41;5096467;28;20031;-36
2022/09/30 12:26:14;;;;;;;;;;;;;;;16.14;70.10;100946.88;5095475;28;19916;-35
2022/09/30 12:31:44;;;;;;;;;;;;;;;16.10;71.38;100937.59;5095356;28;19961;-35
2022/09/30 12:34:12;;;;;;;;;;;;;;;16.33;68.99;100941.78;5096208;28;20272;-36
2022/09/30 12:36:38;;;;;;;;;;;;;;;16.55;68.14;100936.16;5095362;28;20023;-35
2022/09/30 12:39:04;;;;;;;;;;;;;;;16.73;67.34;100932.94;5096084;28;19955;-35
2022/09/30 12:41:32;;;;;;;;;;;;;;;16.86;64.56;100928.03;5095080;28;20441;-36
2022/09/30 12:44:06;;;;;;;;;;;;;;;16.95;66.43;100929.16;5096041;28;20252;-36
2022/09/30 12:46:37;;;;;;;;;;;;;;;17.04;66.30;100932.19;5095067;28;19922;-36
2022/09/30 12:49:05;;;;;;;;;;;;;;;17.14;66.89;100932.19;5095495;28;20405;-36
2022/09/30 12:51:31;;;;;;;;;;;;;;;17.21;63.92;100927.25;5094892;28;19923;-36
2022/09/30 12:54:10;;;;;;;;;;;;;;;17.22;64.98;100929.69;5095724;28;19920;-35
2022/09/30 12:56:36;;;;;;;;;;;;;;;17.05;65.62;100929.16;5094800;28;19920;-36